sensor_id;sensor_type;location;lat;lon;timestamp;P1;durP1;ratioP1;P2;durP2;ratioP2
41263;SDS011;26998;48.714;9.414;2024-03-22T00:01:46;13.05;;;11.02;;
41263;SDS011;26998;48.714;9.414;2024-03-22T00:04:13;15.75;;;11.02;;
41263;SDS011;26998;48.714;9.414;2024-03-22T00:06:43;15.00;;;10.98;;
41263;SDS011;26998;48.714;9.414;2024-03-22T00:09:11;12.88;;;10.38;;
41263;SDS011;26998;48.714;9.414;2024-03-22T00:11:36;13.52;;;10.50;;
41263;SDS011;26998;48.714;9.414;2024-03-22T00:14:04;14.85;;;10.93;;
41263;SDS011;26998;48.714;9.414;2024-03-22T00:16:30;14.43;;;10.88;;
41263;SDS011;26998;48.714;9.414;2024-03-22T00:18:56;12.40;;;10.30;;
41263;SDS011;26998;48.714;9.414;2024-03-22T00:21:22;14.48;;;10.85;;
41263;SDS011;26998;48.714;9.414;2024-03-22T00:23:48;13.18;;;11.13;;
41263;SDS011;26998;48.714;9.414;2024-03-22T00:26:13;15.23;;;10.85;;
41263;SDS011;26998;48.714;9.414;2024-03-22T00:28:39;15.60;;;10.63;;
41263;SDS011;26998;48.714;9.414;2024-03-22T00:31:05;13.57;;;11.20;;
41263;SDS011;26998;48.714;9.414;2024-03-22T00:33:31;15.83;;;11.33;;
41263;SDS011;26998;48.714;9.414;2024-03-22T00:35:57;15.27;;;12.15;;
41263;SDS011;26998;48.714;9.414;2024-03-22T00:38:23;14.75;;;11.20;;
41263;SDS011;26998;48.714;9.414;2024-03-22T00:40:49;16.57;;;11.20;;
41263;SDS011;26998;48.714;9.414;2024-03-22T00:43:14;15.18;;;11.40;;
41263;SDS011;26998;48.714;9.414;2024-03-22T00:45:40;17.67;;;11.90;;
41263;SDS011;26998;48.714;9.414;2024-03-22T00:48:06;16.13;;;12.18;;
41263;SDS011;26998;48.714;9.414;2024-03-22T00:50:32;15.23;;;11.93;;
41263;SDS011;26998;48.714;9.414;2024-03-22T00:52:57;15.27;;;12.00;;
41263;SDS011;26998;48.714;9.414;2024-03-22T00:55:23;17.33;;;12.23;;
41263;SDS011;26998;48.714;9.414;2024-03-22T00:57:49;14.65;;;11.48;;
41263;SDS011;26998;48.714;9.414;2024-03-22T01:00:15;14.38;;;11.55;;
41263;SDS011;26998;48.714;9.414;2024-03-22T01:02:43;14.23;;;11.38;;
41263;SDS011;26998;48.714;9.414;2024-03-22T01:05:09;15.45;;;11.23;;
41263;SDS011;26998;48.714;9.414;2024-03-22T01:07:36;14.68;;;12.05;;
41263;SDS011;26998;48.714;9.414;2024-03-22T01:10:05;15.82;;;12.20;;
41263;SDS011;26998;48.714;9.414;2024-03-22T01:12:31;17.30;;;12.10;;
41263;SDS011;26998;48.714;9.414;2024-03-22T01:14:58;19.47;;;13.20;;
41263;SDS011;26998;48.714;9.414;2024-03-22T01:17:23;15.52;;;12.52;;
41263;SDS011;26998;48.714;9.414;2024-03-22T01:19:50;17.45;;;13.68;;
41263;SDS011;26998;48.714;9.414;2024-03-22T01:22:16;16.00;;;13.02;;
41263;SDS011;26998;48.714;9.414;2024-03-22T01:24:43;16.35;;;12.95;;
41263;SDS011;26998;48.714;9.414;2024-03-22T01:27:09;16.63;;;12.73;;
41263;SDS011;26998;48.714;9.414;2024-03-22T01:29:35;16.45;;;12.63;;
41263;SDS011;26998;48.714;9.414;2024-03-22T01:32:02;16.27;;;12.68;;
41263;SDS011;26998;48.714;9.414;2024-03-22T01:34:28;17.98;;;13.82;;
41263;SDS011;26998;48.714;9.414;2024-03-22T01:36:54;20.42;;;13.88;;
41263;SDS011;26998;48.714;9.414;2024-03-22T01:39:20;15.85;;;12.82;;
41263;SDS011;26998;48.714;9.414;2024-03-22T01:41:49;17.40;;;13.13;;
41263;SDS011;26998;48.714;9.414;2024-03-22T01:44:16;15.63;;;13.13;;
41263;SDS011;26998;48.714;9.414;2024-03-22T01:46:42;18.25;;;13.23;;
41263;SDS011;26998;48.714;9.414;2024-03-22T01:49:09;19.98;;;14.13;;
41263;SDS011;26998;48.714;9.414;2024-03-22T01:51:39;18.25;;;13.18;;
41263;SDS011;26998;48.714;9.414;2024-03-22T01:54:05;17.20;;;13.45;;
41263;SDS011;26998;48.714;9.414;2024-03-22T01:56:34;16.00;;;13.30;;
41263;SDS011;26998;48.714;9.414;2024-03-22T01:59:03;19.17;;;13.60;;
41263;SDS011;26998;48.714;9.414;2024-03-22T02:01:30;20.75;;;13.65;;
41263;SDS011;26998;48.714;9.414;2024-03-22T02:03:56;17.35;;;12.82;;
41263;SDS011;26998;48.714;9.414;2024-03-22T02:06:21;19.30;;;13.67;;
41263;SDS011;26998;48.714;9.414;2024-03-22T02:08:47;19.80;;;13.43;;
41263;SDS011;26998;48.714;9.414;2024-03-22T02:11:13;18.25;;;13.30;;
41263;SDS011;26998;48.714;9.414;2024-03-22T02:13:40;21.70;;;13.80;;
41263;SDS011;26998;48.714;9.414;2024-03-22T02:16:08;19.27;;;14.45;;
41263;SDS011;26998;48.714;9.414;2024-03-22T02:18:34;19.30;;;14.02;;
41263;SDS011;26998;48.714;9.414;2024-03-22T02:21:00;18.13;;;14.05;;
41263;SDS011;26998;48.714;9.414;2024-03-22T02:23:35;18.40;;;14.38;;
41263;SDS011;26998;48.714;9.414;2024-03-22T02:26:02;19.83;;;14.50;;
41263;SDS011;26998;48.714;9.414;2024-03-22T02:28:28;21.42;;;14.00;;
41263;SDS011;26998;48.714;9.414;2024-03-22T02:30:55;21.30;;;14.98;;
41263;SDS011;26998;48.714;9.414;2024-03-22T02:33:21;21.43;;;14.53;;
41263;SDS011;26998;48.714;9.414;2024-03-22T02:35:47;22.13;;;14.30;;
41263;SDS011;26998;48.714;9.414;2024-03-22T02:38:13;21.83;;;15.68;;
41263;SDS011;26998;48.714;9.414;2024-03-22T02:40:42;21.45;;;14.95;;
41263;SDS011;26998;48.714;9.414;2024-03-22T02:43:08;19.03;;;15.43;;
41263;SDS011;26998;48.714;9.414;2024-03-22T02:45:34;27.05;;;16.05;;
41263;SDS011;26998;48.714;9.414;2024-03-22T02:48:00;21.65;;;15.75;;
41263;SDS011;26998;48.714;9.414;2024-03-22T02:50:26;22.13;;;15.20;;
41263;SDS011;26998;48.714;9.414;2024-03-22T02:52:51;24.60;;;16.45;;
41263;SDS011;26998;48.714;9.414;2024-03-22T02:55:17;20.88;;;15.82;;
41263;SDS011;26998;48.714;9.414;2024-03-22T02:57:43;22.70;;;17.00;;
41263;SDS011;26998;48.714;9.414;2024-03-22T03:00:09;22.77;;;15.95;;
41263;SDS011;26998;48.714;9.414;2024-03-22T03:02:35;23.07;;;15.80;;
41263;SDS011;26998;48.714;9.414;2024-03-22T03:05:02;23.05;;;16.10;;
41263;SDS011;26998;48.714;9.414;2024-03-22T03:07:28;20.80;;;15.63;;
41263;SDS011;26998;48.714;9.414;2024-03-22T03:09:53;21.38;;;15.75;;
41263;SDS011;26998;48.714;9.414;2024-03-22T03:12:19;22.67;;;15.83;;
41263;SDS011;26998;48.714;9.414;2024-03-22T03:14:45;20.08;;;15.75;;
41263;SDS011;26998;48.714;9.414;2024-03-22T03:17:11;23.77;;;16.70;;
41263;SDS011;26998;48.714;9.414;2024-03-22T03:19:36;21.05;;;15.07;;
41263;SDS011;26998;48.714;9.414;2024-03-22T03:22:02;20.87;;;15.40;;
41263;SDS011;26998;48.714;9.414;2024-03-22T03:24:28;21.15;;;15.75;;
41263;SDS011;26998;48.714;9.414;2024-03-22T03:26:54;20.52;;;15.57;;
41263;SDS011;26998;48.714;9.414;2024-03-22T03:29:20;23.07;;;16.03;;
41263;SDS011;26998;48.714;9.414;2024-03-22T03:31:45;23.58;;;16.10;;
41263;SDS011;26998;48.714;9.414;2024-03-22T03:34:11;20.92;;;16.48;;
41263;SDS011;26998;48.714;9.414;2024-03-22T03:36:37;21.00;;;15.20;;
41263;SDS011;26998;48.714;9.414;2024-03-22T03:39:03;23.15;;;16.45;;
41263;SDS011;26998;48.714;9.414;2024-03-22T03:41:29;20.65;;;16.00;;
41263;SDS011;26998;48.714;9.414;2024-03-22T03:43:55;23.92;;;16.27;;
41263;SDS011;26998;48.714;9.414;2024-03-22T03:46:21;21.88;;;16.25;;
41263;SDS011;26998;48.714;9.414;2024-03-22T03:48:47;23.17;;;17.13;;
41263;SDS011;26998;48.714;9.414;2024-03-22T03:51:13;24.50;;;16.58;;
41263;SDS011;26998;48.714;9.414;2024-03-22T03:53:38;23.30;;;16.97;;
41263;SDS011;26998;48.714;9.414;2024-03-22T03:56:04;22.60;;;16.40;;
41263;SDS011;26998;48.714;9.414;2024-03-22T03:58:30;21.97;;;16.70;;
41263;SDS011;26998;48.714;9.414;2024-03-22T04:00:56;22.60;;;16.67;;
41263;SDS011;26998;48.714;9.414;2024-03-22T04:03:23;23.13;;;16.77;;
41263;SDS011;26998;48.714;9.414;2024-03-22T04:05:56;23.63;;;16.60;;
41263;SDS011;26998;48.714;9.414;2024-03-22T04:08:22;24.40;;;16.35;;
41263;SDS011;26998;48.714;9.414;2024-03-22T04:10:55;22.63;;;17.25;;
41263;SDS011;26998;48.714;9.414;2024-03-22T04:13:25;21.92;;;17.15;;
41263;SDS011;26998;48.714;9.414;2024-03-22T04:15:52;23.95;;;17.05;;
41263;SDS011;26998;48.714;9.414;2024-03-22T04:18:19;22.17;;;17.00;;
41263;SDS011;26998;48.714;9.414;2024-03-22T04:20:58;23.17;;;17.13;;
41263;SDS011;26998;48.714;9.414;2024-03-22T04:23:25;22.90;;;15.80;;
41263;SDS011;26998;48.714;9.414;2024-03-22T04:25:58;21.40;;;16.92;;
41263;SDS011;26998;48.714;9.414;2024-03-22T04:28:25;24.00;;;15.93;;
41263;SDS011;26998;48.714;9.414;2024-03-22T04:30:55;23.42;;;16.58;;
41263;SDS011;26998;48.714;9.414;2024-03-22T04:33:21;22.17;;;16.13;;
41263;SDS011;26998;48.714;9.414;2024-03-22T04:35:47;21.48;;;16.20;;
41263;SDS011;26998;48.714;9.414;2024-03-22T04:38:13;23.10;;;16.70;;
41263;SDS011;26998;48.714;9.414;2024-03-22T04:40:39;25.83;;;17.50;;
41263;SDS011;26998;48.714;9.414;2024-03-22T04:43:05;25.83;;;17.42;;
41263;SDS011;26998;48.714;9.414;2024-03-22T04:45:30;25.37;;;17.97;;
41263;SDS011;26998;48.714;9.414;2024-03-22T04:47:56;25.23;;;18.85;;
41263;SDS011;26998;48.714;9.414;2024-03-22T04:50:22;25.07;;;18.50;;
41263;SDS011;26998;48.714;9.414;2024-03-22T04:52:47;24.30;;;17.70;;
41263;SDS011;26998;48.714;9.414;2024-03-22T04:55:13;23.63;;;17.43;;
41263;SDS011;26998;48.714;9.414;2024-03-22T04:57:39;25.42;;;17.88;;
41263;SDS011;26998;48.714;9.414;2024-03-22T05:00:04;26.33;;;17.92;;
41263;SDS011;26998;48.714;9.414;2024-03-22T05:02:34;25.50;;;17.55;;
41263;SDS011;26998;48.714;9.414;2024-03-22T05:05:00;24.20;;;18.40;;
41263;SDS011;26998;48.714;9.414;2024-03-22T05:07:25;23.97;;;17.27;;
41263;SDS011;26998;48.714;9.414;2024-03-22T05:09:51;20.95;;;16.65;;
41263;SDS011;26998;48.714;9.414;2024-03-22T05:12:17;23.17;;;17.00;;
41263;SDS011;26998;48.714;9.414;2024-03-22T05:14:43;22.60;;;16.07;;
41263;SDS011;26998;48.714;9.414;2024-03-22T05:17:09;23.15;;;17.25;;
41263;SDS011;26998;48.714;9.414;2024-03-22T05:19:37;25.83;;;17.20;;
41263;SDS011;26998;48.714;9.414;2024-03-22T05:22:02;20.00;;;15.63;;
41263;SDS011;26998;48.714;9.414;2024-03-22T05:24:28;22.80;;;17.03;;
41263;SDS011;26998;48.714;9.414;2024-03-22T05:26:54;23.23;;;16.10;;
41263;SDS011;26998;48.714;9.414;2024-03-22T05:29:20;21.13;;;15.47;;
41263;SDS011;26998;48.714;9.414;2024-03-22T05:31:46;22.58;;;16.05;;
41263;SDS011;26998;48.714;9.414;2024-03-22T05:34:17;22.40;;;16.33;;
41263;SDS011;26998;48.714;9.414;2024-03-22T05:36:44;22.53;;;15.53;;
41263;SDS011;26998;48.714;9.414;2024-03-22T05:39:11;21.85;;;15.55;;
41263;SDS011;26998;48.714;9.414;2024-03-22T05:41:37;25.83;;;16.77;;
41263;SDS011;26998;48.714;9.414;2024-03-22T05:44:03;22.40;;;15.95;;
41263;SDS011;26998;48.714;9.414;2024-03-22T05:46:30;21.70;;;16.47;;
41263;SDS011;26998;48.714;9.414;2024-03-22T05:48:56;22.70;;;15.75;;
41263;SDS011;26998;48.714;9.414;2024-03-22T05:51:22;20.95;;;15.65;;
41263;SDS011;26998;48.714;9.414;2024-03-22T05:53:48;21.13;;;15.77;;
41263;SDS011;26998;48.714;9.414;2024-03-22T05:56:14;22.05;;;16.42;;
41263;SDS011;26998;48.714;9.414;2024-03-22T05:58:39;22.15;;;16.27;;
41263;SDS011;26998;48.714;9.414;2024-03-22T06:01:05;20.90;;;16.23;;
41263;SDS011;26998;48.714;9.414;2024-03-22T06:03:31;21.63;;;16.40;;
41263;SDS011;26998;48.714;9.414;2024-03-22T06:05:58;21.97;;;15.67;;
41263;SDS011;26998;48.714;9.414;2024-03-22T06:08:26;22.25;;;16.30;;
41263;SDS011;26998;48.714;9.414;2024-03-22T06:10:52;20.48;;;16.02;;
41263;SDS011;26998;48.714;9.414;2024-03-22T06:13:20;19.88;;;15.15;;
41263;SDS011;26998;48.714;9.414;2024-03-22T06:15:48;18.85;;;15.02;;
41263;SDS011;26998;48.714;9.414;2024-03-22T06:18:14;22.60;;;14.82;;
41263;SDS011;26998;48.714;9.414;2024-03-22T06:20:41;18.30;;;14.53;;
41263;SDS011;26998;48.714;9.414;2024-03-22T06:23:09;23.92;;;17.05;;
41263;SDS011;26998;48.714;9.414;2024-03-22T06:25:36;22.93;;;17.23;;
41263;SDS011;26998;48.714;9.414;2024-03-22T06:28:02;21.83;;;16.17;;
41263;SDS011;26998;48.714;9.414;2024-03-22T06:30:28;22.50;;;16.27;;
41263;SDS011;26998;48.714;9.414;2024-03-22T06:32:54;21.83;;;16.30;;
41263;SDS011;26998;48.714;9.414;2024-03-22T06:35:23;20.20;;;15.05;;
41263;SDS011;26998;48.714;9.414;2024-03-22T06:37:48;21.63;;;16.13;;
41263;SDS011;26998;48.714;9.414;2024-03-22T06:40:15;23.40;;;16.63;;
41263;SDS011;26998;48.714;9.414;2024-03-22T06:42:41;22.83;;;15.85;;
41263;SDS011;26998;48.714;9.414;2024-03-22T06:45:08;22.25;;;15.75;;
41263;SDS011;26998;48.714;9.414;2024-03-22T06:47:34;21.60;;;15.38;;
41263;SDS011;26998;48.714;9.414;2024-03-22T06:49:59;22.45;;;15.95;;
41263;SDS011;26998;48.714;9.414;2024-03-22T06:52:25;24.43;;;16.50;;
41263;SDS011;26998;48.714;9.414;2024-03-22T06:54:51;22.65;;;16.33;;
41263;SDS011;26998;48.714;9.414;2024-03-22T06:57:17;28.75;;;16.15;;
41263;SDS011;26998;48.714;9.414;2024-03-22T06:59:46;24.23;;;16.65;;
41263;SDS011;26998;48.714;9.414;2024-03-22T07:02:11;19.80;;;15.43;;
41263;SDS011;26998;48.714;9.414;2024-03-22T07:04:39;21.20;;;15.73;;
41263;SDS011;26998;48.714;9.414;2024-03-22T07:07:05;20.58;;;15.52;;
41263;SDS011;26998;48.714;9.414;2024-03-22T07:09:32;25.80;;;16.43;;
41263;SDS011;26998;48.714;9.414;2024-03-22T07:11:58;25.70;;;16.80;;
41263;SDS011;26998;48.714;9.414;2024-03-22T07:14:24;21.15;;;15.50;;
41263;SDS011;26998;48.714;9.414;2024-03-22T07:16:50;21.52;;;15.18;;
41263;SDS011;26998;48.714;9.414;2024-03-22T07:19:19;20.05;;;14.90;;
41263;SDS011;26998;48.714;9.414;2024-03-22T07:21:46;20.98;;;15.57;;
41263;SDS011;26998;48.714;9.414;2024-03-22T07:24:13;20.40;;;15.30;;
41263;SDS011;26998;48.714;9.414;2024-03-22T07:26:38;26.88;;;15.98;;
41263;SDS011;26998;48.714;9.414;2024-03-22T07:29:04;22.13;;;15.32;;
41263;SDS011;26998;48.714;9.414;2024-03-22T07:31:30;18.53;;;14.47;;
41263;SDS011;26998;48.714;9.414;2024-03-22T07:33:56;30.65;;;15.40;;
41263;SDS011;26998;48.714;9.414;2024-03-22T07:36:22;18.75;;;13.73;;
41263;SDS011;26998;48.714;9.414;2024-03-22T07:38:50;21.83;;;13.95;;
41263;SDS011;26998;48.714;9.414;2024-03-22T07:41:19;23.83;;;14.40;;
41263;SDS011;26998;48.714;9.414;2024-03-22T07:43:45;23.42;;;15.07;;
41263;SDS011;26998;48.714;9.414;2024-03-22T07:46:11;27.83;;;14.07;;
41263;SDS011;26998;48.714;9.414;2024-03-22T07:48:37;22.90;;;13.47;;
41263;SDS011;26998;48.714;9.414;2024-03-22T07:51:03;22.23;;;13.50;;
41263;SDS011;26998;48.714;9.414;2024-03-22T07:53:31;53.22;;;15.63;;
41263;SDS011;26998;48.714;9.414;2024-03-22T07:55:57;20.17;;;13.70;;
41263;SDS011;26998;48.714;9.414;2024-03-22T07:58:23;17.98;;;13.32;;
41263;SDS011;26998;48.714;9.414;2024-03-22T08:00:49;17.10;;;13.23;;
41263;SDS011;26998;48.714;9.414;2024-03-22T08:03:15;20.13;;;13.48;;
41263;SDS011;26998;48.714;9.414;2024-03-22T08:05:42;19.48;;;12.85;;
41263;SDS011;26998;48.714;9.414;2024-03-22T08:08:08;18.60;;;13.15;;
41263;SDS011;26998;48.714;9.414;2024-03-22T08:10:37;21.35;;;13.68;;
41263;SDS011;26998;48.714;9.414;2024-03-22T08:13:03;17.00;;;13.40;;
41263;SDS011;26998;48.714;9.414;2024-03-22T08:15:34;16.37;;;12.33;;
41263;SDS011;26998;48.714;9.414;2024-03-22T08:18:01;15.43;;;12.95;;
41263;SDS011;26998;48.714;9.414;2024-03-22T08:20:32;15.65;;;12.15;;
41263;SDS011;26998;48.714;9.414;2024-03-22T08:23:00;16.13;;;13.33;;
41263;SDS011;26998;48.714;9.414;2024-03-22T08:25:26;16.17;;;12.10;;
41263;SDS011;26998;48.714;9.414;2024-03-22T08:27:55;15.75;;;12.30;;
41263;SDS011;26998;48.714;9.414;2024-03-22T08:30:24;16.20;;;12.18;;
41263;SDS011;26998;48.714;9.414;2024-03-22T08:32:53;16.80;;;11.93;;
41263;SDS011;26998;48.714;9.414;2024-03-22T08:35:19;21.93;;;12.67;;
41263;SDS011;26998;48.714;9.414;2024-03-22T08:37:44;19.60;;;12.70;;
41263;SDS011;26998;48.714;9.414;2024-03-22T08:40:11;16.65;;;12.02;;
41263;SDS011;26998;48.714;9.414;2024-03-22T08:42:40;16.63;;;12.18;;
41263;SDS011;26998;48.714;9.414;2024-03-22T08:45:06;13.32;;;10.68;;
41263;SDS011;26998;48.714;9.414;2024-03-22T08:47:38;14.40;;;11.65;;
41263;SDS011;26998;48.714;9.414;2024-03-22T08:50:06;13.48;;;10.73;;
41263;SDS011;26998;48.714;9.414;2024-03-22T08:52:32;15.17;;;10.63;;
41263;SDS011;26998;48.714;9.414;2024-03-22T08:54:59;13.38;;;10.82;;
41263;SDS011;26998;48.714;9.414;2024-03-22T08:57:25;13.45;;;10.80;;
41263;SDS011;26998;48.714;9.414;2024-03-22T08:59:51;13.70;;;11.05;;
41263;SDS011;26998;48.714;9.414;2024-03-22T09:02:20;16.85;;;11.75;;
41263;SDS011;26998;48.714;9.414;2024-03-22T09:04:52;13.10;;;10.25;;
41263;SDS011;26998;48.714;9.414;2024-03-22T09:07:18;13.50;;;10.70;;
41263;SDS011;26998;48.714;9.414;2024-03-22T09:09:52;14.13;;;10.60;;
41263;SDS011;26998;48.714;9.414;2024-03-22T09:12:21;13.45;;;10.93;;
41263;SDS011;26998;48.714;9.414;2024-03-22T09:14:47;12.52;;;10.73;;
41263;SDS011;26998;48.714;9.414;2024-03-22T09:17:13;16.70;;;10.47;;
41263;SDS011;26998;48.714;9.414;2024-03-22T09:19:39;13.65;;;10.55;;
41263;SDS011;26998;48.714;9.414;2024-03-22T09:22:05;13.80;;;9.73;;
41263;SDS011;26998;48.714;9.414;2024-03-22T09:24:32;17.42;;;10.75;;
41263;SDS011;26998;48.714;9.414;2024-03-22T09:26:58;14.05;;;11.00;;
41263;SDS011;26998;48.714;9.414;2024-03-22T09:29:24;13.10;;;10.20;;
41263;SDS011;26998;48.714;9.414;2024-03-22T09:31:50;13.52;;;9.80;;
41263;SDS011;26998;48.714;9.414;2024-03-22T09:34:16;14.87;;;9.77;;
41263;SDS011;26998;48.714;9.414;2024-03-22T09:36:42;12.30;;;9.60;;
41263;SDS011;26998;48.714;9.414;2024-03-22T09:39:14;11.35;;;8.82;;
41263;SDS011;26998;48.714;9.414;2024-03-22T09:41:42;11.50;;;9.27;;
41263;SDS011;26998;48.714;9.414;2024-03-22T09:44:14;16.25;;;10.07;;
41263;SDS011;26998;48.714;9.414;2024-03-22T09:46:47;10.82;;;8.48;;
41263;SDS011;26998;48.714;9.414;2024-03-22T09:49:15;12.90;;;9.95;;
41263;SDS011;26998;48.714;9.414;2024-03-22T09:51:41;11.93;;;8.43;;
41263;SDS011;26998;48.714;9.414;2024-03-22T09:54:09;10.13;;;8.40;;
41263;SDS011;26998;48.714;9.414;2024-03-22T09:56:37;13.50;;;8.37;;
41263;SDS011;26998;48.714;9.414;2024-03-22T09:59:04;20.77;;;9.20;;
41263;SDS011;26998;48.714;9.414;2024-03-22T10:01:31;10.57;;;7.53;;
41263;SDS011;26998;48.714;9.414;2024-03-22T10:03:57;9.40;;;6.88;;
41263;SDS011;26998;48.714;9.414;2024-03-22T10:06:23;11.53;;;7.37;;
41263;SDS011;26998;48.714;9.414;2024-03-22T10:08:49;10.85;;;7.03;;
41263;SDS011;26998;48.714;9.414;2024-03-22T10:11:15;23.25;;;8.68;;
41263;SDS011;26998;48.714;9.414;2024-03-22T10:13:41;18.17;;;7.20;;
41263;SDS011;26998;48.714;9.414;2024-03-22T10:16:07;11.02;;;7.47;;
41263;SDS011;26998;48.714;9.414;2024-03-22T10:18:33;9.27;;;6.87;;
41263;SDS011;26998;48.714;9.414;2024-03-22T10:21:02;10.80;;;6.97;;
41263;SDS011;26998;48.714;9.414;2024-03-22T10:23:31;8.95;;;6.32;;
41263;SDS011;26998;48.714;9.414;2024-03-22T10:25:58;8.77;;;6.43;;
41263;SDS011;26998;48.714;9.414;2024-03-22T10:28:25;20.43;;;7.87;;
41263;SDS011;26998;48.714;9.414;2024-03-22T10:30:54;12.98;;;7.20;;
41263;SDS011;26998;48.714;9.414;2024-03-22T10:33:20;9.32;;;7.25;;
41263;SDS011;26998;48.714;9.414;2024-03-22T10:35:53;9.55;;;7.50;;
41263;SDS011;26998;48.714;9.414;2024-03-22T10:38:19;10.20;;;7.50;;
41263;SDS011;26998;48.714;9.414;2024-03-22T10:40:46;23.55;;;8.07;;
41263;SDS011;26998;48.714;9.414;2024-03-22T10:43:15;22.90;;;7.72;;
41263;SDS011;26998;48.714;9.414;2024-03-22T10:45:41;9.05;;;6.70;;
41263;SDS011;26998;48.714;9.414;2024-03-22T10:48:11;7.78;;;6.20;;
41263;SDS011;26998;48.714;9.414;2024-03-22T10:50:41;8.98;;;5.85;;
41263;SDS011;26998;48.714;9.414;2024-03-22T10:53:09;11.13;;;6.47;;
41263;SDS011;26998;48.714;9.414;2024-03-22T10:55:42;9.65;;;6.07;;
41263;SDS011;26998;48.714;9.414;2024-03-22T11:00:51;8.20;;;6.50;;
41263;SDS011;26998;48.714;9.414;2024-03-22T11:03:21;9.32;;;6.35;;
41263;SDS011;26998;48.714;9.414;2024-03-22T11:05:49;7.55;;;5.78;;
41263;SDS011;26998;48.714;9.414;2024-03-22T11:08:28;8.57;;;6.18;;
41263;SDS011;26998;48.714;9.414;2024-03-22T11:11:08;10.02;;;6.78;;
41263;SDS011;26998;48.714;9.414;2024-03-22T11:13:40;7.90;;;5.97;;
41263;SDS011;26998;48.714;9.414;2024-03-22T11:16:06;8.20;;;5.93;;
41263;SDS011;26998;48.714;9.414;2024-03-22T11:18:35;8.43;;;5.85;;
41263;SDS011;26998;48.714;9.414;2024-03-22T11:21:02;8.30;;;5.93;;
41263;SDS011;26998;48.714;9.414;2024-03-22T11:23:31;8.38;;;6.13;;
41263;SDS011;26998;48.714;9.414;2024-03-22T11:25:56;6.73;;;4.77;;
41263;SDS011;26998;48.714;9.414;2024-03-22T11:28:25;7.78;;;5.43;;
41263;SDS011;26998;48.714;9.414;2024-03-22T11:30:58;8.07;;;5.47;;
41263;SDS011;26998;48.714;9.414;2024-03-22T11:33:24;6.20;;;5.03;;
41263;SDS011;26998;48.714;9.414;2024-03-22T11:35:55;8.80;;;5.53;;
41263;SDS011;26998;48.714;9.414;2024-03-22T11:38:25;12.65;;;5.45;;
41263;SDS011;26998;48.714;9.414;2024-03-22T11:40:52;6.43;;;5.20;;
41263;SDS011;26998;48.714;9.414;2024-03-22T11:43:22;7.22;;;5.25;;
41263;SDS011;26998;48.714;9.414;2024-03-22T11:45:48;8.00;;;5.20;;
41263;SDS011;26998;48.714;9.414;2024-03-22T11:48:14;6.90;;;4.97;;
41263;SDS011;26998;48.714;9.414;2024-03-22T11:50:41;8.27;;;5.18;;
41263;SDS011;26998;48.714;9.414;2024-03-22T11:53:07;9.18;;;5.50;;
41263;SDS011;26998;48.714;9.414;2024-03-22T11:55:35;8.13;;;5.47;;
41263;SDS011;26998;48.714;9.414;2024-03-22T11:58:01;8.50;;;5.70;;
41263;SDS011;26998;48.714;9.414;2024-03-22T12:00:27;8.88;;;4.95;;
41263;SDS011;26998;48.714;9.414;2024-03-22T12:02:54;6.63;;;5.17;;
41263;SDS011;26998;48.714;9.414;2024-03-22T12:05:20;7.25;;;5.50;;
41263;SDS011;26998;48.714;9.414;2024-03-22T12:07:46;8.57;;;5.43;;
41263;SDS011;26998;48.714;9.414;2024-03-22T12:10:12;7.28;;;4.70;;
41263;SDS011;26998;48.714;9.414;2024-03-22T12:12:38;7.10;;;4.90;;
41263;SDS011;26998;48.714;9.414;2024-03-22T12:15:04;7.65;;;4.78;;
41263;SDS011;26998;48.714;9.414;2024-03-22T12:17:31;8.32;;;4.75;;
41263;SDS011;26998;48.714;9.414;2024-03-22T12:19:57;7.20;;;4.57;;
41263;SDS011;26998;48.714;9.414;2024-03-22T12:22:22;7.13;;;4.90;;
41263;SDS011;26998;48.714;9.414;2024-03-22T12:24:50;7.43;;;4.60;;
41263;SDS011;26998;48.714;9.414;2024-03-22T12:27:17;8.07;;;5.37;;
41263;SDS011;26998;48.714;9.414;2024-03-22T12:29:42;6.53;;;4.57;;
41263;SDS011;26998;48.714;9.414;2024-03-22T12:32:09;5.85;;;4.90;;
41263;SDS011;26998;48.714;9.414;2024-03-22T12:34:35;7.95;;;4.53;;
41263;SDS011;26998;48.714;9.414;2024-03-22T12:37:01;5.15;;;4.20;;
41263;SDS011;26998;48.714;9.414;2024-03-22T12:39:27;6.75;;;4.38;;
41263;SDS011;26998;48.714;9.414;2024-03-22T12:41:53;7.70;;;4.50;;
41263;SDS011;26998;48.714;9.414;2024-03-22T12:44:20;5.72;;;4.32;;
41263;SDS011;26998;48.714;9.414;2024-03-22T12:46:48;6.53;;;4.78;;
41263;SDS011;26998;48.714;9.414;2024-03-22T12:49:16;5.88;;;4.57;;
41263;SDS011;26998;48.714;9.414;2024-03-22T12:51:42;4.82;;;4.10;;
41263;SDS011;26998;48.714;9.414;2024-03-22T12:54:08;5.78;;;4.25;;
41263;SDS011;26998;48.714;9.414;2024-03-22T12:56:34;4.70;;;3.90;;
41263;SDS011;26998;48.714;9.414;2024-03-22T12:59:02;6.68;;;4.50;;
41263;SDS011;26998;48.714;9.414;2024-03-22T13:01:28;8.50;;;4.20;;
41263;SDS011;26998;48.714;9.414;2024-03-22T13:04:00;6.75;;;4.22;;
41263;SDS011;26998;48.714;9.414;2024-03-22T13:06:26;7.22;;;4.15;;
41263;SDS011;26998;48.714;9.414;2024-03-22T13:08:52;4.85;;;4.00;;
41263;SDS011;26998;48.714;9.414;2024-03-22T13:11:17;5.90;;;4.10;;
41263;SDS011;26998;48.714;9.414;2024-03-22T13:13:43;5.13;;;3.60;;
41263;SDS011;26998;48.714;9.414;2024-03-22T13:16:09;5.40;;;3.53;;
41263;SDS011;26998;48.714;9.414;2024-03-22T13:18:40;6.28;;;3.72;;
41263;SDS011;26998;48.714;9.414;2024-03-22T13:21:07;5.40;;;3.77;;
41263;SDS011;26998;48.714;9.414;2024-03-22T13:23:33;5.90;;;3.72;;
41263;SDS011;26998;48.714;9.414;2024-03-22T13:26:05;6.05;;;4.43;;
41263;SDS011;26998;48.714;9.414;2024-03-22T13:28:32;5.88;;;4.45;;
41263;SDS011;26998;48.714;9.414;2024-03-22T13:33:28;7.03;;;4.47;;
41263;SDS011;26998;48.714;9.414;2024-03-22T13:35:55;7.68;;;4.25;;
41263;SDS011;26998;48.714;9.414;2024-03-22T13:38:21;6.60;;;3.60;;
41263;SDS011;26998;48.714;9.414;2024-03-22T13:40:53;4.33;;;3.60;;
41263;SDS011;26998;48.714;9.414;2024-03-22T13:43:20;6.03;;;4.20;;
41263;SDS011;26998;48.714;9.414;2024-03-22T13:45:46;6.00;;;3.72;;
41263;SDS011;26998;48.714;9.414;2024-03-22T13:48:19;8.18;;;3.67;;
41263;SDS011;26998;48.714;9.414;2024-03-22T13:50:49;5.28;;;3.88;;
41263;SDS011;26998;48.714;9.414;2024-03-22T13:53:20;5.22;;;3.67;;
41263;SDS011;26998;48.714;9.414;2024-03-22T13:55:49;5.30;;;3.47;;
41263;SDS011;26998;48.714;9.414;2024-03-22T13:58:15;5.97;;;3.60;;
41263;SDS011;26998;48.714;9.414;2024-03-22T14:00:41;3.63;;;2.95;;
41263;SDS011;26998;48.714;9.414;2024-03-22T14:03:07;4.43;;;3.22;;
41263;SDS011;26998;48.714;9.414;2024-03-22T14:05:33;5.22;;;3.28;;
41263;SDS011;26998;48.714;9.414;2024-03-22T14:08:00;6.90;;;4.05;;
41263;SDS011;26998;48.714;9.414;2024-03-22T14:10:26;5.30;;;3.70;;
41263;SDS011;26998;48.714;9.414;2024-03-22T14:12:56;5.13;;;3.30;;
41263;SDS011;26998;48.714;9.414;2024-03-22T14:15:26;5.15;;;3.83;;
41263;SDS011;26998;48.714;9.414;2024-03-22T14:17:58;6.20;;;3.40;;
41263;SDS011;26998;48.714;9.414;2024-03-22T14:20:24;6.03;;;3.40;;
41263;SDS011;26998;48.714;9.414;2024-03-22T14:22:50;4.18;;;3.17;;
41263;SDS011;26998;48.714;9.414;2024-03-22T14:25:17;4.60;;;3.17;;
41263;SDS011;26998;48.714;9.414;2024-03-22T14:27:46;6.37;;;3.57;;
41263;SDS011;26998;48.714;9.414;2024-03-22T14:30:12;6.38;;;3.13;;
41263;SDS011;26998;48.714;9.414;2024-03-22T14:32:40;6.70;;;2.83;;